Nagoya, Japan
Current Conditions -  °F | °C
As of 12:00 AM on Saturday 25 Oct 2014 (Local Time) from RJGG Reporting Station
Scattered Clouds Scattered Clouds  
Wind Chill: 61°   Ceiling: Unl
Heat Index: 61°   Visibility: 6mi
Dew Point: 59°   Wind: 6mph
Humidity: 94%   Direction: 50°NE
Pressure: 30.15"   Gusts: NA
Location:  35.15°N, 136.91°E
Report Text: RJGG 241500Z 05005KT 9999 FEW015 SCT030 16/15 Q1021 NOSIG
Loading
Personal Weather Stations






























Interactive Weather Map
Tropical Storm Tracking
New forecast layout! Learn more

10-Day Weather Forecast

Advertisements
Track Severe Weather on mobile